Time;durP1;ratioP1;P1;durP2;ratioP2;P2;SDS_P1;SDS_P2;PMS_P1;PMS_P2;Temp;Humidity;BMP_temperature;BMP_pressure;BME280_temperature;BME280_humidity;BME280_pressure;Samples;Min_cycle;Max_cycle;Signal;HPM_P1;HPM_P2
2021/03/30 00:00:08;;;;;;;29.63;14.77;;;12.10;87.80;;;;;;5028009;28;20026;-73
2021/03/30 00:02:35;;;;;;;35.05;16.13;;;12.00;87.90;;;;;;5010974;28;20025;-74
2021/03/30 00:05:03;;;;;;;30.17;15.65;;;12.10;88.00;;;;;;5028801;28;20483;-74
2021/03/30 00:07:29;;;;;;;28.67;14.88;;;12.00;88.30;;;;;;5028924;28;20040;-72
2021/03/30 00:09:54;;;;;;;26.80;15.15;;;12.00;87.80;;;;;;5027365;28;20029;-74
2021/03/30 00:12:20;;;;;;;31.65;13.90;;;12.00;87.50;;;;;;5020362;28;20086;-75
2021/03/30 00:14:46;;;;;;;27.10;13.55;;;11.90;87.50;;;;;;5026239;28;20095;-74
2021/03/30 00:17:11;;;;;;;29.10;14.60;;;12.00;87.20;;;;;;5027549;28;20136;-75
2021/03/30 00:19:37;;;;;;;25.48;14.00;;;11.90;87.00;;;;;;5019668;28;20029;-75
2021/03/30 00:22:03;;;;;;;24.17;13.00;;;11.90;87.20;;;;;;5023003;28;20033;-75
2021/03/30 00:24:28;;;;;;;21.83;12.90;;;11.90;86.70;;;;;;5023850;28;20057;-73
2021/03/30 00:26:54;;;;;;;26.42;12.02;;;11.90;86.20;;;;;;5030405;28;20041;-74
2021/03/30 00:29:20;;;;;;;23.42;10.10;;;11.90;86.00;;;;;;5026530;28;20040;-75
2021/03/30 00:31:46;;;;;;;25.60;10.63;;;11.90;86.00;;;;;;5029586;28;20053;-74
2021/03/30 00:34:12;;;;;;;21.85;9.88;;;11.90;85.00;;;;;;5029031;28;20049;-74
2021/03/30 00:36:37;;;;;;;25.30;10.73;;;11.90;84.20;;;;;;5023699;28;20471;-74
2021/03/30 00:39:03;;;;;;;21.30;10.35;;;11.80;83.80;;;;;;5011651;28;20380;-74
2021/03/30 00:41:29;;;;;;;25.17;9.85;;;11.80;83.80;;;;;;5008389;28;20029;-73
2021/03/30 00:43:55;;;;;;;17.88;9.77;;;11.80;83.60;;;;;;5030652;28;20075;-74
2021/03/30 00:46:22;;;;;;;18.65;10.80;;;11.80;83.60;;;;;;5026673;28;20034;-75
2021/03/30 00:48:49;;;;;;;22.45;9.90;;;11.80;82.40;;;;;;5029433;28;20125;-75
2021/03/30 00:51:18;;;;;;;17.40;10.02;;;11.80;83.10;;;;;;5025988;28;20491;-74
2021/03/30 00:53:45;;;;;;;26.00;10.10;;;11.80;83.40;;;;;;5020637;28;20451;-75
2021/03/30 00:56:11;;;;;;;18.38;9.20;;;11.80;82.90;;;;;;5029312;28;20475;-74
2021/03/30 00:58:37;;;;;;;24.05;11.10;;;11.80;81.80;;;;;;5025943;28;20037;-75
2021/03/30 01:01:03;;;;;;;18.52;9.65;;;11.70;82.80;;;;;;5025851;28;20097;-75
2021/03/30 01:03:29;;;;;;;21.10;10.15;;;11.70;83.00;;;;;;5028871;28;20057;-74
2021/03/30 01:05:55;;;;;;;19.52;10.20;;;11.70;82.80;;;;;;5009207;28;20030;-74
2021/03/30 01:08:48;;;;;;;26.92;10.40;;;11.70;82.90;;;;;;5029157;28;20036;-74
2021/03/30 01:11:31;;;;;;;22.00;10.70;;;11.70;82.80;;;;;;5008011;28;20034;-75
2021/03/30 01:14:36;;;;;;;24.02;11.43;;;11.60;82.80;;;;;;5005386;28;20092;-74
2021/03/30 01:17:11;;;;;;;25.73;11.65;;;11.60;83.00;;;;;;5027648;28;20036;-75
2021/03/30 01:19:40;;;;;;;23.40;12.40;;;11.60;83.90;;;;;;5008262;28;20167;-75
2021/03/30 01:22:43;;;;;;;22.48;12.93;;;11.60;84.30;;;;;;5028586;28;20474;-75
2021/03/30 01:25:11;;;;;;;22.08;12.32;;;11.60;84.40;;;;;;5008382;28;20447;-75
2021/03/30 01:27:50;;;;;;;28.30;12.93;;;11.60;84.30;;;;;;5023391;28;20041;-74
2021/03/30 01:30:18;;;;;;;26.17;12.38;;;11.60;84.90;;;;;;5025245;28;20076;-75
2021/03/30 01:32:51;;;;;;;24.17;11.43;;;11.60;84.60;;;;;;5023083;28;20037;-75
2021/03/30 01:35:23;;;;;;;26.50;11.48;;;11.60;84.40;;;;;;5022179;28;20491;-75
2021/03/30 01:37:50;;;;;;;22.48;12.32;;;11.50;84.40;;;;;;5026414;28;20041;-75
2021/03/30 01:40:21;;;;;;;28.98;11.15;;;11.50;83.80;;;;;;5027178;28;20083;-75
2021/03/30 01:42:51;;;;;;;26.10;12.38;;;11.50;84.00;;;;;;5026658;28;20025;-75
2021/03/30 01:45:19;;;;;;;26.48;11.43;;;11.50;84.10;;;;;;5018230;28;20449;-75
2021/03/30 01:47:45;;;;;;;21.80;10.25;;;11.50;84.40;;;;;;5008736;28;20092;-75
2021/03/30 01:50:12;;;;;;;20.98;10.60;;;11.50;83.60;;;;;;5023632;28;20106;-73
2021/03/30 01:52:39;;;;;;;20.75;10.75;;;11.50;84.00;;;;;;5026540;28;20116;-75
2021/03/30 01:55:08;;;;;;;25.20;10.73;;;11.40;83.50;;;;;;5023248;28;20121;-75
2021/03/30 01:57:37;;;;;;;26.95;11.82;;;11.50;83.40;;;;;;5025495;28;20061;-73
2021/03/30 02:00:10;;;;;;;28.70;11.38;;;11.40;83.70;;;;;;5021710;28;20029;-75
2021/03/30 02:02:37;;;;;;;29.25;10.73;;;11.40;83.90;;;;;;5009924;28;20080;-74
2021/03/30 02:05:04;;;;;;;21.58;11.02;;;11.40;83.50;;;;;;5025251;28;20029;-75
2021/03/30 02:07:32;;;;;;;21.15;10.82;;;11.40;83.20;;;;;;5021081;28;20080;-75
2021/03/30 02:10:01;;;;;;;20.00;10.25;;;11.40;83.50;;;;;;5023229;28;20076;-75
2021/03/30 02:12:34;;;;;;;19.73;9.25;;;11.40;82.80;;;;;;5026643;28;20032;-76
2021/03/30 02:15:01;;;;;;;20.10;9.50;;;11.40;83.00;;;;;;5025932;28;20076;-75
2021/03/30 02:17:38;;;;;;;22.63;9.10;;;11.40;81.90;;;;;;5023242;28;20029;-71
2021/03/30 02:20:20;;;;;;;20.73;9.57;;;11.40;82.80;;;;;;5024085;28;20318;-74
2021/03/30 02:22:50;;;;;;;20.00;8.25;;;11.40;81.70;;;;;;5023064;28;20029;-72
2021/03/30 02:25:19;;;;;;;23.83;9.40;;;11.30;81.60;;;;;;5021836;28;20025;-73
2021/03/30 02:27:48;;;;;;;22.73;9.77;;;11.40;81.50;;;;;;5003353;28;20343;-73
2021/03/30 02:30:16;;;;;;;20.33;8.35;;;11.30;79.80;;;;;;5009135;28;20372;-76
2021/03/30 02:32:44;;;;;;;16.38;7.65;;;11.30;80.80;;;;;;5026392;28;20383;-75
2021/03/30 02:35:11;;;;;;;16.50;7.97;;;11.30;80.50;;;;;;5020176;28;20088;-74
2021/03/30 02:37:39;;;;;;;17.55;7.82;;;11.30;79.30;;;;;;5026552;28;20030;-73
2021/03/30 02:40:07;;;;;;;18.88;7.82;;;11.30;79.00;;;;;;5007320;28;20101;-74
2021/03/30 02:42:35;;;;;;;19.55;7.78;;;11.30;79.50;;;;;;5023374;28;20489;-75
2021/03/30 02:45:02;;;;;;;16.92;7.60;;;11.30;79.60;;;;;;5020234;28;20500;-75
2021/03/30 02:47:28;;;;;;;20.20;7.90;;;11.30;79.60;;;;;;5023507;28;20123;-73
2021/03/30 02:49:54;;;;;;;21.23;8.88;;;11.30;79.50;;;;;;5022628;28;20112;-71
2021/03/30 02:52:23;;;;;;;22.25;8.63;;;11.30;79.40;;;;;;5024217;28;20033;-73
2021/03/30 02:54:49;;;;;;;17.02;7.55;;;11.20;78.70;;;;;;5019924;28;20037;-75
2021/03/30 02:57:19;;;;;;;14.60;7.10;;;11.20;78.90;;;;;;5026841;28;20036;-74
2021/03/30 02:59:46;;;;;;;18.80;7.53;;;11.20;79.60;;;;;;4990082;28;20067;-75
2021/03/30 03:02:15;;;;;;;21.80;8.07;;;11.20;78.90;;;;;;5022478;28;20026;-75
2021/03/30 03:04:45;;;;;;;25.42;8.77;;;11.20;79.00;;;;;;5022791;28;20029;-75
2021/03/30 03:07:11;;;;;;;19.02;7.25;;;11.20;79.00;;;;;;5024049;28;20222;-75
2021/03/30 03:09:38;;;;;;;16.02;7.18;;;11.20;78.20;;;;;;5020249;28;20492;-75
2021/03/30 03:12:05;;;;;;;18.33;7.72;;;11.20;78.30;;;;;;5024056;28;20507;-74
2021/03/30 03:14:33;;;;;;;16.27;7.82;;;11.20;78.50;;;;;;5020469;28;20515;-75
2021/03/30 03:17:00;;;;;;;16.25;6.78;;;11.20;78.80;;;;;;5022143;28;20495;-75
2021/03/30 03:19:27;;;;;;;18.17;7.95;;;11.20;77.70;;;;;;5020974;28;20041;-75
2021/03/30 03:21:54;;;;;;;18.58;7.80;;;11.20;78.20;;;;;;5025778;28;20030;-75
2021/03/30 03:24:20;;;;;;;15.35;7.47;;;11.20;78.60;;;;;;5026505;28;20029;-75
2021/03/30 03:26:47;;;;;;;19.48;7.97;;;11.10;78.80;;;;;;5021094;28;20499;-75
2021/03/30 03:29:15;;;;;;;17.58;7.25;;;11.10;77.90;;;;;;5008067;28;20043;-75
2021/03/30 03:31:42;;;;;;;13.20;6.57;;;11.10;77.80;;;;;;5021539;28;20418;-73
2021/03/30 03:34:09;;;;;;;17.35;7.60;;;11.10;78.00;;;;;;5010983;28;20065;-75
2021/03/30 03:36:46;;;;;;;20.70;7.18;;;11.10;78.60;;;;;;5022183;28;20040;-75
2021/03/30 03:39:15;;;;;;;22.27;6.90;;;11.10;78.60;;;;;;5022282;28;20034;-73
2021/03/30 03:41:42;;;;;;;19.08;6.78;;;11.10;77.30;;;;;;5019817;28;20087;-73
2021/03/30 03:44:09;;;;;;;16.50;6.75;;;11.10;77.50;;;;;;5022771;28;20113;-73
2021/03/30 03:46:35;;;;;;;21.20;7.57;;;11.10;77.10;;;;;;5022338;28;20037;-73
2021/03/30 03:49:02;;;;;;;18.50;6.93;;;11.00;77.70;;;;;;5021652;28;20037;-73
2021/03/30 03:51:32;;;;;;;15.02;7.63;;;11.00;77.80;;;;;;5006587;28;20030;-71
2021/03/30 03:54:01;;;;;;;17.67;7.75;;;11.00;78.00;;;;;;5022125;28;20376;-72
2021/03/30 03:56:30;;;;;;;18.55;7.15;;;11.00;77.80;;;;;;5017928;28;20065;-72
2021/03/30 03:59:01;;;;;;;19.88;8.02;;;11.00;77.90;;;;;;5016067;28;20764;-71
2021/03/30 04:01:36;;;;;;;15.05;7.55;;;11.00;78.40;;;;;;5025482;28;20029;-72
2021/03/30 04:04:05;;;;;;;17.90;7.70;;;11.00;78.10;;;;;;5020597;28;20438;-73
2021/03/30 04:06:37;;;;;;;15.10;7.00;;;10.90;77.90;;;;;;5028492;28;20053;-71
2021/03/30 04:09:06;;;;;;;19.52;8.30;;;11.00;78.10;;;;;;5007117;28;20036;-71
2021/03/30 04:11:34;;;;;;;16.38;7.57;;;11.00;78.90;;;;;;5025955;28;20108;-73
2021/03/30 04:14:01;;;;;;;19.83;8.00;;;10.90;77.90;;;;;;5026130;28;20024;-73
2021/03/30 04:16:29;;;;;;;18.58;7.22;;;10.90;77.80;;;;;;5026306;28;20119;-72
2021/03/30 04:18:55;;;;;;;15.02;6.88;;;10.90;78.20;;;;;;5024895;28;20030;-73
2021/03/30 04:21:26;;;;;;;17.63;7.35;;;10.90;78.50;;;;;;5023116;28;20040;-73
2021/03/30 04:23:53;;;;;;;15.85;7.93;;;10.90;78.20;;;;;;5015044;28;20037;-73
2021/03/30 04:26:19;;;;;;;21.80;8.25;;;10.90;78.80;;;;;;5026609;28;20036;-73
2021/03/30 04:28:45;;;;;;;23.95;7.85;;;10.90;77.70;;;;;;5026779;28;20061;-73
2021/03/30 04:31:11;;;;;;;21.98;8.27;;;10.90;77.00;;;;;;5027777;28;20065;-72
2021/03/30 04:33:36;;;;;;;14.27;7.78;;;10.90;78.70;;;;;;5021447;28;20021;-72
2021/03/30 04:36:02;;;;;;;21.02;8.05;;;10.90;78.30;;;;;;5028123;28;20026;-73
2021/03/30 04:38:28;;;;;;;15.75;7.70;;;10.80;78.90;;;;;;5027030;28;20026;-72
2021/03/30 04:40:54;;;;;;;20.27;8.73;;;10.80;79.10;;;;;;5026666;28;20133;-73
2021/03/30 04:43:21;;;;;;;25.25;9.13;;;10.80;79.10;;;;;;5023880;28;20628;-73
2021/03/30 04:45:47;;;;;;;14.50;8.73;;;10.80;79.00;;;;;;5024612;28;20030;-73
2021/03/30 04:48:13;;;;;;;20.92;8.85;;;10.80;79.40;;;;;;5011004;28;20030;-72
2021/03/30 04:50:39;;;;;;;21.35;8.50;;;10.80;79.70;;;;;;5010259;28;20396;-73
2021/03/30 04:53:04;;;;;;;23.67;9.73;;;10.80;79.60;;;;;;5025390;28;20029;-73
2021/03/30 04:55:30;;;;;;;19.17;8.75;;;10.70;78.60;;;;;;5028323;28;20026;-72
2021/03/30 04:57:56;;;;;;;16.13;9.25;;;10.80;79.30;;;;;;5031204;28;20033;-73
2021/03/30 05:00:22;;;;;;;16.27;7.53;;;10.80;79.50;;;;;;5027181;28;20018;-73
2021/03/30 05:02:48;;;;;;;21.17;8.85;;;10.80;79.20;;;;;;5029495;28;20159;-72
2021/03/30 05:05:14;;;;;;;16.48;10.45;;;10.80;79.30;;;;;;5027806;28;20113;-72
2021/03/30 05:07:40;;;;;;;21.88;9.95;;;10.80;79.90;;;;;;5027365;28;20033;-72
2021/03/30 05:10:06;;;;;;;25.35;10.45;;;10.80;79.60;;;;;;5008738;28;20432;-72
2021/03/30 05:12:32;;;;;;;20.83;10.23;;;10.70;79.60;;;;;;5022648;28;20034;-72
2021/03/30 05:14:58;;;;;;;18.73;9.60;;;10.70;79.80;;;;;;5025667;28;20028;-72
2021/03/30 05:17:23;;;;;;;16.98;9.90;;;10.70;79.90;;;;;;5025630;28;20465;-71
2021/03/30 05:19:49;;;;;;;19.08;10.82;;;10.70;80.30;;;;;;5029562;28;20038;-72
2021/03/30 05:22:15;;;;;;;26.63;12.48;;;10.70;80.50;;;;;;5028971;28;20037;-72
2021/03/30 05:24:41;;;;;;;22.40;10.82;;;10.70;80.70;;;;;;5026265;28;20033;-72
2021/03/30 05:27:07;;;;;;;23.77;12.35;;;10.60;81.00;;;;;;5027136;28;20084;-72
2021/03/30 05:29:46;;;;;;;29.48;11.63;;;10.70;80.90;;;;;;5025597;28;20033;-72
2021/03/30 05:32:16;;;;;;;23.25;11.98;;;10.70;81.40;;;;;;5008658;28;20040;-72
2021/03/30 05:34:47;;;;;;;23.45;11.65;;;10.70;81.20;;;;;;5029294;28;20488;-72
2021/03/30 05:37:13;;;;;;;22.85;13.02;;;10.70;81.30;;;;;;5030265;28;20038;-72
2021/03/30 05:39:39;;;;;;;23.83;12.65;;;10.70;81.10;;;;;;5031093;28;20112;-74
2021/03/30 05:42:06;;;;;;;31.10;13.40;;;10.70;81.30;;;;;;5013149;28;20108;-74
2021/03/30 05:44:32;;;;;;;23.70;13.55;;;10.70;81.10;;;;;;5026818;28;20128;-71
2021/03/30 05:47:10;;;;;;;28.45;13.82;;;10.70;81.50;;;;;;5017180;28;20037;-74
2021/03/30 05:49:41;;;;;;;26.40;12.85;;;10.80;81.70;;;;;;5023507;28;20446;-73
2021/03/30 05:52:19;;;;;;;29.25;15.18;;;10.70;81.70;;;;;;5027429;28;20025;-73
2021/03/30 05:54:50;;;;;;;27.17;13.70;;;10.70;81.80;;;;;;5031655;28;20025;-73
2021/03/30 05:57:17;;;;;;;33.97;14.93;;;10.80;82.20;;;;;;5028900;28;20030;-73
2021/03/30 05:59:45;;;;;;;24.65;14.32;;;10.70;82.10;;;;;;5028411;28;20061;-73
2021/03/30 06:02:19;;;;;;;27.20;14.43;;;10.80;81.60;;;;;;5034075;28;20025;-73
2021/03/30 06:04:46;;;;;;;30.83;14.23;;;10.80;82.00;;;;;;5032791;28;20033;-73
2021/03/30 06:07:12;;;;;;;28.70;14.95;;;10.80;81.70;;;;;;5032056;28;20029;-73
2021/03/30 06:09:41;;;;;;;23.02;13.75;;;10.80;82.00;;;;;;5030549;28;20031;-73
2021/03/30 06:12:09;;;;;;;26.50;14.63;;;10.80;82.00;;;;;;5013561;28;20106;-73
2021/03/30 06:14:40;;;;;;;26.80;14.95;;;10.80;82.10;;;;;;5027282;28;20616;-73
2021/03/30 06:17:07;;;;;;;31.38;14.48;;;10.90;81.60;;;;;;5030717;28;20045;-72
2021/03/30 06:19:51;;;;;;;27.58;14.13;;;10.90;81.30;;;;;;5028296;28;20022;-73
2021/03/30 06:22:17;;;;;;;25.10;14.43;;;10.90;80.80;;;;;;5030174;28;20380;-72
2021/03/30 06:24:43;;;;;;;21.77;12.60;;;11.00;80.80;;;;;;5028766;28;20053;-73
2021/03/30 06:27:20;;;;;;;30.25;13.55;;;11.00;80.80;;;;;;5008904;28;20071;-74
2021/03/30 06:29:47;;;;;;;21.25;12.63;;;11.00;80.80;;;;;;5030812;28;20025;-68
2021/03/30 06:32:16;;;;;;;23.35;13.10;;;11.10;79.60;;;;;;5027965;28;20056;-70
2021/03/30 06:34:43;;;;;;;22.42;12.75;;;11.10;79.70;;;;;;5029654;28;20448;-73
2021/03/30 06:37:30;;;;;;;24.83;14.10;;;11.10;79.70;;;;;;5027459;28;20045;-73
2021/03/30 06:40:20;;;;;;;29.25;12.90;;;11.10;78.70;;;;;;5026910;28;20030;-73
2021/03/30 06:42:58;;;;;;;19.88;12.52;;;11.10;79.40;;;;;;5029637;28;20079;-73
2021/03/30 06:45:30;;;;;;;21.77;12.32;;;11.10;79.40;;;;;;5030533;28;20021;-73
2021/03/30 06:48:00;;;;;;;24.83;13.02;;;11.10;79.40;;;;;;5029379;28;20029;-73
2021/03/30 06:50:32;;;;;;;24.83;11.65;;;11.20;77.50;;;;;;5025652;28;20025;-73
2021/03/30 06:53:08;;;;;;;;;;;11.30;76.90;;;;;;5028333;28;20499;-71
2021/03/30 06:55:34;;;;;;;22.40;11.63;;;11.30;78.00;;;;;;5011257;28;19909;-72
2021/03/30 06:58:01;;;;;;;22.65;11.43;;;11.30;78.00;;;;;;5030568;28;20032;-73
2021/03/30 07:00:29;;;;;;;26.42;12.50;;;11.30;77.90;;;;;;5028865;28;20017;-72
2021/03/30 07:03:01;;;;;;;23.15;10.95;;;11.30;78.10;;;;;;5031174;28;20040;-74
2021/03/30 07:05:38;;;;;;;26.80;12.88;;;11.40;77.60;;;;;;5029621;28;20034;-72
2021/03/30 07:08:10;;;;;;;32.53;12.40;;;11.40;77.10;;;;;;5031872;28;20494;-72
2021/03/30 07:10:36;;;;;;;;;;;11.40;77.20;;;;;;5031045;28;20029;-71
2021/03/30 07:13:03;;;;;;;20.50;11.20;;;11.50;76.70;;;;;;5026663;28;20047;-71
2021/03/30 07:15:29;;;;;;;23.15;11.32;;;11.50;76.00;;;;;;5023620;28;20076;-72
2021/03/30 07:18:07;;;;;;;19.00;10.20;;;11.60;75.90;;;;;;5023266;28;20082;-72
2021/03/30 07:20:44;;;;;;;23.77;11.90;;;11.60;76.50;;;;;;5028308;28;20028;-72
2021/03/30 07:23:15;;;;;;;20.92;11.15;;;11.60;76.50;;;;;;5026539;28;21513;-72
2021/03/30 07:25:49;;;;;;;20.13;10.93;;;11.60;76.90;;;;;;5027642;28;20021;-72
2021/03/30 07:28:23;;;;;;;19.02;11.00;;;11.60;77.00;;;;;;5032756;28;20030;-73
2021/03/30 07:30:54;;;;;;;26.48;10.82;;;11.70;76.20;;;;;;5032404;28;20037;-73
2021/03/30 07:33:30;;;;;;;21.17;10.70;;;11.70;76.60;;;;;;5032644;28;20033;-72
2021/03/30 07:35:58;;;;;;;20.65;10.63;;;11.80;75.90;;;;;;5029315;28;20061;-73
2021/03/30 07:38:30;;;;;;;20.55;10.38;;;11.80;76.60;;;;;;5025443;28;20101;-72
2021/03/30 07:40:56;;;;;;;27.73;11.18;;;11.90;76.40;;;;;;5030794;28;20052;-72
2021/03/30 07:43:30;;;;;;;20.50;10.25;;;11.90;77.50;;;;;;5033193;28;20057;-73
2021/03/30 07:46:00;;;;;;;16.33;9.32;;;11.90;76.80;;;;;;5026039;28;20026;-71
2021/03/30 07:48:29;;;;;;;21.40;10.77;;;11.90;76.20;;;;;;5025895;28;20550;-71
2021/03/30 07:51:05;;;;;;;23.98;11.90;;;12.00;76.20;;;;;;5026766;28;20040;-71
2021/03/30 07:53:54;;;;;;;19.58;10.02;;;12.10;76.10;;;;;;5027344;28;20029;-72
2021/03/30 07:56:26;;;;;;;18.45;10.30;;;12.10;76.10;;;;;;5029748;28;20087;-73
2021/03/30 07:58:54;;;;;;;23.88;10.30;;;12.20;76.00;;;;;;5031744;28;20030;-73
2021/03/30 08:01:24;;;;;;;23.42;10.45;;;12.30;76.00;;;;;;5029904;28;20124;-73
2021/03/30 08:03:52;;;;;;;21.98;10.50;;;12.30;76.50;;;;;;5031461;28;20025;-72
2021/03/30 08:06:30;;;;;;;21.50;10.73;;;12.30;76.70;;;;;;5030118;28;20037;-72
2021/03/30 08:08:57;;;;;;;19.35;10.85;;;12.40;76.50;;;;;;5013048;28;20034;-73
2021/03/30 08:11:42;;;;;;;18.25;9.70;;;12.40;76.30;;;;;;5029410;28;20021;-73
2021/03/30 08:14:23;;;;;;;20.85;9.93;;;12.40;76.90;;;;;;5023681;28;20032;-72
2021/03/30 08:16:51;;;;;;;15.02;8.82;;;12.50;77.10;;;;;;5028362;28;20041;-73
2021/03/30 08:19:19;;;;;;;18.17;9.20;;;12.60;77.10;;;;;;5026407;28;20433;-73
2021/03/30 08:21:58;;;;;;;19.05;10.32;;;12.60;77.00;;;;;;5029096;28;20026;-70
2021/03/30 08:24:28;;;;;;;14.57;8.57;;;12.70;77.10;;;;;;5023825;28;20072;-73
2021/03/30 08:26:54;;;;;;;19.23;8.55;;;12.70;77.70;;;;;;5009268;28;20372;-72
2021/03/30 08:29:32;;;;;;;19.45;9.38;;;12.80;77.10;;;;;;5025476;28;20431;-72
2021/03/30 08:31:58;;;;;;;18.80;9.10;;;12.80;77.70;;;;;;5029034;28;20580;-72
2021/03/30 08:34:27;;;;;;;20.80;10.00;;;12.80;77.70;;;;;;5027334;28;20382;-73
2021/03/30 08:36:57;;;;;;;20.80;9.52;;;12.90;77.40;;;;;;5029485;28;20035;-72
2021/03/30 08:39:24;;;;;;;17.55;8.77;;;12.90;77.40;;;;;;5008492;28;20568;-72
2021/03/30 08:42:09;;;;;;;20.45;8.93;;;12.90;77.60;;;;;;5025406;28;20109;-72
2021/03/30 08:44:56;;;;;;;18.17;9.07;;;13.10;77.10;;;;;;5029229;28;20056;-73
2021/03/30 08:47:42;;;;;;;18.75;9.13;;;13.10;77.40;;;;;;5028394;28;20104;-72
2021/03/30 08:50:20;;;;;;;19.05;10.18;;;13.20;77.40;;;;;;5031094;28;20030;-72
2021/03/30 08:52:46;;;;;;;16.88;9.05;;;13.20;77.30;;;;;;5029105;28;20403;-72
2021/03/30 08:55:12;;;;;;;16.35;8.57;;;13.30;77.40;;;;;;5031220;28;20026;-72
2021/03/30 08:57:46;;;;;;;21.02;9.50;;;13.40;77.50;;;;;;5026106;28;20045;-72
2021/03/30 09:00:14;;;;;;;16.80;8.63;;;13.50;77.50;;;;;;5032132;28;20601;-73
2021/03/30 09:02:40;;;;;;;17.20;8.93;;;13.50;77.50;;;;;;5029202;28;20041;-72
2021/03/30 09:05:19;;;;;;;16.67;9.05;;;13.60;77.40;;;;;;5032791;28;20029;-72
2021/03/30 09:07:47;;;;;;;17.95;9.45;;;13.60;77.60;;;;;;5033031;28;20128;-72
2021/03/30 09:10:15;;;;;;;19.42;9.45;;;13.60;77.50;;;;;;5026275;28;20127;-71
2021/03/30 09:12:47;;;;;;;15.80;8.93;;;13.80;77.20;;;;;;5026733;28;20155;-74
2021/03/30 09:15:19;;;;;;;16.85;9.00;;;13.80;77.40;;;;;;5025337;28;20109;-70
2021/03/30 09:18:28;;;;;;;16.88;9.57;;;13.80;77.40;;;;;;5014198;28;20040;-71
2021/03/30 09:21:26;;;;;;;15.52;8.68;;;13.90;77.80;;;;;;5015881;28;20508;-71
2021/03/30 09:23:59;;;;;;;16.48;8.30;;;13.90;77.80;;;;;;5023639;28;20030;-71
2021/03/30 09:26:31;;;;;;;18.63;8.73;;;14.00;77.60;;;;;;5026555;28;20050;-71
2021/03/30 09:28:57;;;;;;;15.20;8.27;;;14.20;77.30;;;;;;5027010;28;20030;-72
2021/03/30 09:31:26;;;;;;;14.68;7.47;;;14.20;77.20;;;;;;5029510;28;20030;-71
2021/03/30 09:34:02;;;;;;;16.85;9.30;;;14.20;77.50;;;;;;5029603;28;20026;-72
2021/03/30 09:36:28;;;;;;;13.88;7.68;;;14.30;76.70;;;;;;5028633;28;20034;-72
2021/03/30 09:39:12;;;;;;;12.73;7.82;;;14.50;76.50;;;;;;5034628;28;20030;-72
2021/03/30 09:42:01;;;;;;;13.40;7.38;;;14.50;76.20;;;;;;5000850;28;20030;-74
2021/03/30 09:44:34;;;;;;;13.40;8.38;;;14.60;75.90;;;;;;5034048;28;20033;-71
2021/03/30 09:47:00;;;;;;;13.38;8.00;;;14.60;75.90;;;;;;5031997;28;20076;-72
2021/03/30 09:49:26;;;;;;;16.60;8.25;;;14.60;76.10;;;;;;5026493;28;20057;-72
2021/03/30 09:51:53;;;;;;;16.92;9.35;;;14.80;75.30;;;;;;5033577;28;20038;-71
2021/03/30 09:54:27;;;;;;;14.00;7.78;;;14.80;75.50;;;;;;5034165;28;20116;-73
2021/03/30 09:56:59;;;;;;;12.27;7.85;;;14.80;75.50;;;;;;5028086;28;20440;-73
2021/03/30 09:59:25;;;;;;;13.90;8.20;;;14.90;75.50;;;;;;5027082;28;20084;-72
2021/03/30 10:01:52;;;;;;;12.02;7.32;;;15.00;74.80;;;;;;5012724;28;20060;-72
2021/03/30 10:04:17;;;;;;;11.95;7.50;;;14.90;75.40;;;;;;5030522;28;20029;-72
2021/03/30 10:06:43;;;;;;;14.73;7.57;;;15.00;75.60;;;;;;5029043;28;20514;-71
2021/03/30 10:09:09;;;;;;;13.93;7.47;;;15.20;74.30;;;;;;5013355;28;20057;-71
2021/03/30 10:11:35;;;;;;;13.52;7.82;;;15.20;74.50;;;;;;5028750;28;20086;-71
2021/03/30 10:14:24;;;;;;;15.18;7.57;;;15.20;74.60;;;;;;5031466;28;20489;-71
2021/03/30 10:16:56;;;;;;;15.20;7.55;;;15.40;74.40;;;;;;5027712;28;20053;-73
2021/03/30 10:19:22;;;;;;;13.13;7.50;;;15.50;74.60;;;;;;5010563;28;20105;-72
2021/03/30 10:21:54;;;;;;;9.48;6.13;;;15.50;74.50;;;;;;5008795;28;20083;-72
2021/03/30 10:24:21;;;;;;;10.68;7.63;;;15.50;74.60;;;;;;5030074;28;20040;-72
2021/03/30 10:27:04;;;;;;;14.20;7.38;;;15.50;74.40;;;;;;5026554;28;20040;-77
2021/03/30 10:29:37;;;;;;;14.82;7.25;;;15.50;74.30;;;;;;5029300;28;20083;-74
2021/03/30 10:32:11;;;;;;;13.60;7.03;;;15.60;74.00;;;;;;5027868;28;20546;-75
2021/03/30 10:34:36;;;;;;;14.18;7.63;;;15.60;74.40;;;;;;5028861;28;20029;-71
2021/03/30 10:37:05;;;;;;;12.98;6.50;;;15.70;73.90;;;;;;5026525;28;20363;-74
2021/03/30 10:39:42;;;;;;;16.45;7.47;;;15.70;73.90;;;;;;5027533;28;20033;-70
2021/03/30 10:42:13;;;;;;;12.52;7.00;;;16.00;72.80;;;;;;5010963;28;20037;-70
2021/03/30 10:44:42;;;;;;;11.57;7.00;;;16.00;72.90;;;;;;5028354;28;20026;-69
2021/03/30 10:47:21;;;;;;;9.88;6.05;;;16.10;71.80;;;;;;5027031;28;20067;-71
2021/03/30 10:49:49;;;;;;;8.95;5.63;;;16.00;72.50;;;;;;5026415;28;20108;-70
2021/03/30 10:52:23;;;;;;;7.93;5.75;;;16.00;72.10;;;;;;5022773;28;20375;-69
2021/03/30 10:54:52;;;;;;;9.23;5.55;;;16.10;71.30;;;;;;5013038;28;20088;-71
2021/03/30 10:57:19;;;;;;;12.00;6.47;;;16.10;71.80;;;;;;5029905;28;20033;-69
2021/03/30 10:59:45;;;;;;;8.93;5.97;;;16.20;71.30;;;;;;5028691;28;20056;-71
2021/03/30 11:02:13;;;;;;;14.68;6.47;;;16.40;70.80;;;;;;5026551;28;20581;-71
2021/03/30 11:04:42;;;;;;;9.93;6.10;;;16.50;69.60;;;;;;5027633;28;20033;-71
2021/03/30 11:07:10;;;;;;;12.20;6.50;;;16.50;70.80;;;;;;5030511;28;20037;-69
2021/03/30 11:09:37;;;;;;;9.15;5.93;;;16.80;71.00;;;;;;5028399;28;20033;-68
2021/03/30 11:12:03;;;;;;;13.50;6.00;;;17.20;69.90;;;;;;5030244;28;20053;-73
2021/03/30 11:14:29;;;;;;;9.57;5.40;;;17.60;69.80;;;;;;5030665;28;20021;-72
2021/03/30 11:16:55;;;;;;;7.43;5.50;;;18.50;65.00;;;;;;5031002;28;20056;-73
2021/03/30 11:19:21;;;;;;;7.75;4.50;;;20.00;62.70;;;;;;5028820;28;20068;-71
2021/03/30 11:21:47;;;;;;;9.98;5.68;;;21.20;59.80;;;;;;5010130;28;20022;-73
2021/03/30 11:24:22;;;;;;;7.60;5.38;;;22.80;52.30;;;;;;5029660;28;20025;-72
2021/03/30 11:26:50;;;;;;;7.88;4.07;;;23.80;47.60;;;;;;5030453;28;20116;-73
2021/03/30 11:29:36;;;;;;;6.03;4.15;;;24.80;47.10;;;;;;5027646;28;20025;-73
2021/03/30 11:32:20;;;;;;;10.15;4.90;;;25.10;45.80;;;;;;5030103;28;20025;-74
2021/03/30 11:34:51;;;;;;;7.63;4.35;;;26.00;40.90;;;;;;5030192;28;20064;-74
2021/03/30 11:37:33;;;;;;;6.60;4.88;;;26.00;42.30;;;;;;5030501;28;20022;-73
2021/03/30 11:39:58;;;;;;;7.00;4.72;;;26.10;40.60;;;;;;5031244;28;20842;-74
2021/03/30 11:42:25;;;;;;;8.48;5.15;;;25.10;42.20;;;;;;5032356;28;20101;-72
2021/03/30 11:44:52;;;;;;;7.85;5.47;;;24.70;43.10;;;;;;5026890;28;20039;-69
2021/03/30 11:47:17;;;;;;;9.75;5.15;;;24.30;44.00;;;;;;5027460;28;20037;-69
2021/03/30 11:49:43;;;;;;;19.58;5.78;;;23.70;45.40;;;;;;5005598;28;20026;-69
2021/03/30 11:52:09;;;;;;;9.20;5.38;;;22.90;47.50;;;;;;5027217;28;20044;-71
2021/03/30 11:54:35;;;;;;;10.82;6.55;;;22.30;50.10;;;;;;5027108;28;20104;-73
2021/03/30 11:57:02;;;;;;;10.98;6.30;;;22.00;49.20;;;;;;5029968;28;20120;-72
2021/03/30 11:59:27;;;;;;;9.25;5.10;;;21.40;53.80;;;;;;5027731;28;20030;-71
2021/03/30 12:01:54;;;;;;;9.25;5.63;;;21.10;53.30;;;;;;5030188;28;20025;-71
2021/03/30 12:04:20;;;;;;;11.13;5.80;;;20.80;55.40;;;;;;5013061;28;20545;-72
2021/03/30 12:06:46;;;;;;;9.45;6.35;;;20.90;52.50;;;;;;5026812;28;20068;-71
2021/03/30 12:09:12;;;;;;;9.23;6.03;;;20.90;52.80;;;;;;5010010;28;20030;-71
2021/03/30 12:11:38;;;;;;;9.48;5.38;;;21.00;53.90;;;;;;5027594;28;20030;-72
2021/03/30 12:14:05;;;;;;;9.40;5.93;;;20.70;55.40;;;;;;5029056;28;20040;-72
2021/03/30 12:16:30;;;;;;;10.93;6.65;;;20.70;55.10;;;;;;5029163;28;20034;-71
2021/03/30 12:18:57;;;;;;;8.48;5.03;;;21.00;53.70;;;;;;5027360;28;20387;-72
2021/03/30 12:21:24;;;;;;;8.07;5.60;;;21.20;52.60;;;;;;5031129;28;20037;-71
2021/03/30 12:23:50;;;;;;;10.75;4.80;;;21.50;51.90;;;;;;5034027;28;20079;-71
2021/03/30 12:26:17;;;;;;;9.13;4.45;;;21.60;52.90;;;;;;5017339;28;20411;-72
2021/03/30 12:28:42;;;;;;;9.00;5.32;;;21.70;52.60;;;;;;5032365;28;20049;-70
2021/03/30 12:31:08;;;;;;;7.53;4.40;;;21.90;51.70;;;;;;5032662;28;20069;-72
2021/03/30 12:33:34;;;;;;;10.23;4.63;;;21.90;51.80;;;;;;5016531;28;20037;-73
2021/03/30 12:36:00;;;;;;;6.60;3.85;;;22.30;49.70;;;;;;5032366;28;20029;-72
2021/03/30 12:38:25;;;;;;;5.25;2.92;;;22.70;48.30;;;;;;5031852;28;20026;-71
2021/03/30 12:40:51;;;;;;;4.07;2.95;;;22.90;47.50;;;;;;5024610;28;20029;-71
2021/03/30 12:43:19;;;;;;;6.25;3.30;;;23.00;48.60;;;;;;5029796;28;20021;-70
2021/03/30 12:45:44;;;;;;;5.80;3.55;;;22.90;47.80;;;;;;5033006;28;20534;-70
2021/03/30 12:48:10;;;;;;;8.50;3.55;;;23.40;43.40;;;;;;5033042;28;20033;-72